Maran Pythia — SVAQ5 — position and weather

sailwx.info

Track history (hours):
 
Tides and Currents Weather Stations Pressure Air Temp Water Temp Dewpoint Dewpoint Depression Visibility Wind Speed Wind Dir Waves Ship Positions

Maran Pythia

Last reported at 2016-Jul-27 18:32 UTC. Time now 2016-Jul-27 23:02 UTC.
Position N 44°35' E 037°54'.

Length 275 m; draft 9.7 m.

Type: Ship. MMSI: 240893000.

Date/timePositionNaut miles runAvg speedWind from/ knotsBaromVisibWave heightAir tempDewpointWater temp
2016-Jul-27 18:32N 44°35' E 037°54'1 1.2
2016-Jul-27 17:33N 44°35' E 037°52'7 7.0
2016-Jul-27 16:34N 44°37' E 037°43'0 0.4
2016-Jul-27 15:33N 44°37' E 037°42'0 0.1
2016-Jul-27 14:33N 44°37' E 037°43'2 1.6
2016-Jul-27 13:33N 44°35' E 037°42'4 4.2
2016-Jul-27 12:33N 44°31' E 037°41'5 5.4
2016-Jul-27 11:33N 44°26' E 037°39'5 5.4
2016-Jul-27 10:33N 44°22' E 037°34'7 7.1
2016-Jul-27 09:33N 44°23' E 037°24'6 5.6
2016-Jul-27 08:33N 44°20' E 037°17'8 8.4
2016-Jul-27 07:33N 44°16' E 037°06'47 8.9
2016-Jul-27 02:19N 43°56' E 036°08'28 8.9
2016-Jul-26 23:10N 43°45' E 035°32'7 8.9
2016-Jul-26 22:24N 43°43' E 035°23'10 8.9
2016-Jul-26 21:15N 43°38' E 035°10'6 8.8
2016-Jul-26 20:33N 43°36' E 035°02'9 8.8
2016-Jul-26 19:32N 43°32' E 034°51'9 8.8
2016-Jul-26 18:31N 43°28' E 034°40'9 9.0
2016-Jul-26 17:33N 43°25' E 034°29'10 9.0
2016-Jul-26 16:29N 43°21' E 034°17'  
2016-Jul-24 09:31N 39°55' E 025°57'1010.2
2016-Jul-24 08:33N 39°46' E 025°51'10 9.8
2016-Jul-24 07:33N 39°38' E 025°44'1 0.4
2016-Jul-24 04:32N 39°38' E 025°46'82 4.1
2016-Jul-23 08:29N 38°26' E 024°56'9 9.9
2016-Jul-23 07:33N 38°18' E 024°50'1010.1
2016-Jul-23 06:33N 38°08' E 024°45'19 9.7
2016-Jul-23 04:33N 37°51' E 024°36'10 9.9
2016-Jul-23 03:33N 37°41' E 024°33'14 9.4
2016-Jul-23 02:06N 37°30' E 024°22'5 9.1
2016-Jul-23 01:33N 37°26' E 024°18'1010.3
2016-Jul-23 00:33N 37°17' E 024°14'9 9.4
2016-Jul-22 23:33N 37°08' E 024°11'10 9.9
2016-Jul-22 22:33N 36°58' E 024°07'10 9.6
2016-Jul-22 21:33N 36°49' E 024°03'1010.0
2016-Jul-22 20:32N 36°43' E 023°53'1410.1
2016-Jul-22 19:07N 36°35' E 023°37'710.2
2016-Jul-22 18:27N 36°32' E 023°30'910.4
2016-Jul-22 17:33N 36°26' E 023°21'  
2016-Jul-19 12:26N 37°41' E 016°12'8 8.9
2016-Jul-19 11:31N 37°43' E 016°03'9 8.7
2016-Jul-19 10:32N 37°45' E 015°52'9 9.2
2016-Jul-19 09:33N 37°48' E 015°41'10 9.6
2016-Jul-19 08:33N 37°56' E 015°34'1312.7
2016-Jul-19 07:34N 38°09' E 015°35'27 9.0
2016-Jul-19 04:33N 38°34' E 015°21'1010.1
2016-Jul-19 03:33N 38°41' E 015°12'1313.0
2016-Jul-19 02:33N 38°50' E 015°00'1614.9
2016-Jul-19 01:29N 39°00' E 014°45'29 9.6
2016-Jul-18 22:24N 39°19' E 014°15'9 9.8
2016-Jul-18 21:31N 39°24' E 014°07'1010.0
2016-Jul-18 20:33N 39°31' E 013°57'1010.0
2016-Jul-18 19:34N 39°37' E 013°47'1010.1
2016-Jul-18 18:33N 39°44' E 013°37'1010.2
2016-Jul-18 17:33N 39°50' E 013°27'1010.1
2016-Jul-18 16:33N 39°56' E 013°17'1310.0
2016-Jul-18 15:14N 40°05' E 013°04'7 9.8
2016-Jul-18 14:31N 40°10' E 012°57'31 9.7
2016-Jul-18 11:17N 40°30' E 012°25'7 9.8
2016-Jul-18 10:33N 40°34' E 012°18'10 9.9
2016-Jul-18 09:33N 40°41' E 012°08'1010.3
2016-Jul-18 08:33N 40°47' E 011°57'1010.3
2016-Jul-18 07:33N 40°54' E 011°47'1313.1
2016-Jul-18 06:33N 41°02' E 011°34'2110.3
2016-Jul-18 04:33N 41°16' E 011°13'10 9.7
2016-Jul-18 03:32N 41°22' E 011°03'10 9.7
2016-Jul-18 02:31N 41°28' E 010°53'19 9.7
2016-Jul-18 00:33N 41°41' E 010°33'13 9.5
2016-Jul-17 23:08N 41°49' E 010°19'6 9.6
2016-Jul-17 22:32N 41°53' E 010°13'11 9.7
2016-Jul-17 21:26N 41°60' E 010°02'8 9.1
2016-Jul-17 20:33N 42°07' E 009°57'  
Track history (hours):
 
Tides and Currents Weather Stations Pressure Air Temp Water Temp Dewpoint Dewpoint Depression Visibility Wind Speed Wind Dir Waves Ship Positions

Maran Pythia

Last reported at 2016-Jul-27 18:32 UTC. Time now 2016-Jul-27 23:02 UTC.
Position N 44°35' E 037°54'.

Length 275 m; draft 9.7 m.

Type: Ship. MMSI: 240893000.

Date/timePositionNaut miles runAvg speedWind from/ knotsBaromVisibWave heightAir tempDewpointWater temp
2016-Jul-27 18:32N 44°35' E 037°54'1 1.2
2016-Jul-27 17:33N 44°35' E 037°52'7 7.0
2016-Jul-27 16:34N 44°37' E 037°43'0 0.4
2016-Jul-27 15:33N 44°37' E 037°42'0 0.1
2016-Jul-27 14:33N 44°37' E 037°43'2 1.6
2016-Jul-27 13:33N 44°35' E 037°42'4 4.2
2016-Jul-27 12:33N 44°31' E 037°41'5 5.4
2016-Jul-27 11:33N 44°26' E 037°39'5 5.4
2016-Jul-27 10:33N 44°22' E 037°34'7 7.1
2016-Jul-27 09:33N 44°23' E 037°24'6 5.6
2016-Jul-27 08:33N 44°20' E 037°17'8 8.4
2016-Jul-27 07:33N 44°16' E 037°06'47 8.9
2016-Jul-27 02:19N 43°56' E 036°08'28 8.9
2016-Jul-26 23:10N 43°45' E 035°32'7 8.9
2016-Jul-26 22:24N 43°43' E 035°23'10 8.9
2016-Jul-26 21:15N 43°38' E 035°10'6 8.8
2016-Jul-26 20:33N 43°36' E 035°02'9 8.8
2016-Jul-26 19:32N 43°32' E 034°51'9 8.8
2016-Jul-26 18:31N 43°28' E 034°40'9 9.0
2016-Jul-26 17:33N 43°25' E 034°29'10 9.0
2016-Jul-26 16:29N 43°21' E 034°17'  
2016-Jul-24 09:31N 39°55' E 025°57'1010.2
2016-Jul-24 08:33N 39°46' E 025°51'10 9.8
2016-Jul-24 07:33N 39°38' E 025°44'1 0.4
2016-Jul-24 04:32N 39°38' E 025°46'82 4.1
2016-Jul-23 08:29N 38°26' E 024°56'9 9.9
2016-Jul-23 07:33N 38°18' E 024°50'1010.1
2016-Jul-23 06:33N 38°08' E 024°45'19 9.7
2016-Jul-23 04:33N 37°51' E 024°36'10 9.9
2016-Jul-23 03:33N 37°41' E 024°33'14 9.4
2016-Jul-23 02:06N 37°30' E 024°22'5 9.1
2016-Jul-23 01:33N 37°26' E 024°18'1010.3
2016-Jul-23 00:33N 37°17' E 024°14'9 9.4
2016-Jul-22 23:33N 37°08' E 024°11'10 9.9
2016-Jul-22 22:33N 36°58' E 024°07'10 9.6
2016-Jul-22 21:33N 36°49' E 024°03'1010.0
2016-Jul-22 20:32N 36°43' E 023°53'1410.1
2016-Jul-22 19:07N 36°35' E 023°37'710.2
2016-Jul-22 18:27N 36°32' E 023°30'910.4
2016-Jul-22 17:33N 36°26' E 023°21'  
2016-Jul-19 12:26N 37°41' E 016°12'8 8.9
2016-Jul-19 11:31N 37°43' E 016°03'9 8.7
2016-Jul-19 10:32N 37°45' E 015°52'9 9.2
2016-Jul-19 09:33N 37°48' E 015°41'10 9.6
2016-Jul-19 08:33N 37°56' E 015°34'1312.7
2016-Jul-19 07:34N 38°09' E 015°35'27 9.0
2016-Jul-19 04:33N 38°34' E 015°21'1010.1
2016-Jul-19 03:33N 38°41' E 015°12'1313.0
2016-Jul-19 02:33N 38°50' E 015°00'1614.9
2016-Jul-19 01:29N 39°00' E 014°45'29 9.6
2016-Jul-18 22:24N 39°19' E 014°15'9 9.8
2016-Jul-18 21:31N 39°24' E 014°07'1010.0
2016-Jul-18 20:33N 39°31' E 013°57'1010.0
2016-Jul-18 19:34N 39°37' E 013°47'1010.1
2016-Jul-18 18:33N 39°44' E 013°37'1010.2
2016-Jul-18 17:33N 39°50' E 013°27'1010.1
2016-Jul-18 16:33N 39°56' E 013°17'1310.0
2016-Jul-18 15:14N 40°05' E 013°04'7 9.8
2016-Jul-18 14:31N 40°10' E 012°57'31 9.7
2016-Jul-18 11:17N 40°30' E 012°25'7 9.8
2016-Jul-18 10:33N 40°34' E 012°18'10 9.9
2016-Jul-18 09:33N 40°41' E 012°08'1010.3
2016-Jul-18 08:33N 40°47' E 011°57'1010.3
2016-Jul-18 07:33N 40°54' E 011°47'1313.1
2016-Jul-18 06:33N 41°02' E 011°34'2110.3
2016-Jul-18 04:33N 41°16' E 011°13'10 9.7
2016-Jul-18 03:32N 41°22' E 011°03'10 9.7
2016-Jul-18 02:31N 41°28' E 010°53'19 9.7
2016-Jul-18 00:33N 41°41' E 010°33'13 9.5
2016-Jul-17 23:08N 41°49' E 010°19'6 9.6
2016-Jul-17 22:32N 41°53' E 010°13'11 9.7
2016-Jul-17 21:26N 41°60' E 010°02'8 9.1
2016-Jul-17 20:33N 42°07' E 009°57'  

Dump ship's entire track history